createdAt,value
2019-03-05T00:00:05.678Z,85.57
2019-03-05T00:01:05.672Z,86.24
2019-03-05T00:02:05.659Z,86.43
2019-03-05T00:03:05.652Z,85.95
2019-03-05T00:04:05.649Z,86.43
2019-03-05T00:05:05.634Z,86.24
2019-03-05T00:06:05.623Z,86.05
2019-03-05T00:07:05.617Z,86.05
2019-03-05T00:08:05.609Z,86.71
2019-03-05T00:09:05.598Z,86.05
2019-03-05T00:10:05.588Z,86.05
2019-03-05T00:11:05.585Z,86.14
2019-03-05T00:12:05.570Z,86.33
2019-03-05T00:13:05.564Z,86.14
2019-03-05T00:14:05.553Z,86.52
2019-03-05T00:15:05.546Z,86.43
2019-03-05T00:16:05.538Z,86.61
2019-03-05T00:17:05.527Z,86.14
2019-03-05T00:18:05.566Z,86.52
2019-03-05T00:19:05.508Z,86.14
2019-03-05T00:20:05.505Z,86.80
2019-03-05T00:21:05.492Z,86.24
2019-03-05T00:22:05.483Z,86.24
2019-03-05T00:23:08.140Z,86.14
2019-03-05T00:24:05.468Z,86.33
2019-03-05T00:25:05.457Z,86.24
2019-03-05T00:26:05.459Z,86.52
2019-03-05T00:27:05.447Z,86.52
2019-03-05T00:28:05.430Z,86.71
2019-03-05T00:29:05.429Z,87.19
2019-03-05T00:30:05.411Z,87.47
2019-03-05T00:31:05.401Z,87.47
2019-03-05T00:32:05.404Z,88.23
2019-03-05T00:33:05.388Z,88.71
2019-03-05T00:34:05.374Z,89.28
2019-03-05T00:35:05.369Z,89.47
2019-03-05T00:36:05.357Z,89.56
2019-03-05T00:37:05.348Z,89.85
2019-03-05T00:38:05.339Z,89.85
2019-03-05T00:39:05.330Z,90.42
2019-03-05T00:40:05.321Z,91.18
2019-03-05T00:41:05.315Z,90.99
2019-03-05T00:42:05.866Z,91.75
2019-03-05T00:43:05.296Z,92.32
2019-03-05T00:44:05.286Z,92.51
2019-03-05T00:45:05.278Z,92.41
2019-03-05T00:46:05.269Z,92.61
2019-03-05T00:47:05.271Z,92.80
2019-03-05T00:48:05.317Z,92.80
2019-03-05T00:49:05.265Z,93.27
2019-03-05T00:50:05.246Z,93.46
2019-03-05T00:51:05.253Z,93.37
2019-03-05T00:52:05.219Z,93.75
2019-03-05T00:53:05.218Z,94.22
2019-03-05T00:54:05.196Z,94.51
2019-03-05T00:55:05.193Z,95.08
2019-03-05T00:56:05.180Z,95.46
2019-03-05T00:57:05.175Z,96.03
2019-03-05T00:58:05.164Z,96.22
2019-03-05T00:59:05.154Z,96.22
2019-03-05T01:00:05.148Z,97.27
2019-03-05T01:01:05.144Z,97.27
2019-03-05T01:02:05.125Z,97.08
2019-03-05T01:03:05.120Z,97.45
2019-03-05T01:04:05.109Z,97.55
2019-03-05T01:05:05.103Z,97.41
2019-03-05T01:06:05.091Z,97.74
2019-03-05T01:07:05.083Z,98.03
2019-03-05T01:08:05.075Z,98.88
2019-03-05T01:09:05.065Z,99.84
2019-03-05T01:10:05.054Z,99.99
2019-03-05T01:11:05.049Z,99.99
2019-03-05T01:12:05.039Z,99.99
2019-03-05T01:13:05.031Z,99.99
2019-03-05T01:14:05.022Z,99.99
2019-03-05T01:15:05.013Z,99.99
2019-03-05T01:16:05.002Z,99.99
2019-03-05T01:17:04.994Z,99.99
2019-03-05T01:18:04.995Z,99.99
2019-03-05T01:19:04.988Z,99.99
2019-03-05T01:20:04.981Z,99.99
2019-03-05T01:21:04.973Z,99.99
2019-03-05T01:22:04.966Z,99.99
2019-03-05T01:23:04.956Z,99.99
2019-03-05T01:24:04.945Z,99.99
2019-03-05T01:25:04.935Z,99.99
2019-03-05T01:26:04.924Z,99.99
2019-03-05T01:27:04.916Z,99.99
2019-03-05T01:28:04.915Z,99.99
2019-03-05T01:29:04.899Z,99.99
2019-03-05T01:30:04.889Z,99.99
2019-03-05T01:31:04.923Z,99.99
2019-03-05T01:32:04.874Z,99.99
2019-03-05T01:33:04.865Z,99.99
2019-03-05T01:34:04.854Z,99.99
2019-03-05T01:35:04.850Z,99.99
2019-03-05T01:36:04.841Z,99.99
2019-03-05T01:37:04.834Z,99.99
2019-03-05T01:38:04.818Z,99.99
2019-03-05T01:39:04.811Z,99.99
2019-03-05T01:40:04.802Z,99.99
2019-03-05T01:41:04.793Z,99.99
2019-03-05T01:42:04.783Z,99.99
2019-03-05T01:43:04.775Z,99.99
2019-03-05T01:44:04.767Z,99.99
2019-03-05T01:45:04.757Z,99.99
2019-03-05T01:46:04.750Z,99.99
2019-03-05T01:47:04.740Z,99.99
2019-03-05T01:48:04.736Z,99.99
2019-03-05T01:49:04.722Z,99.99
2019-03-05T01:50:04.712Z,99.99
2019-03-05T01:51:04.706Z,99.99
2019-03-05T01:52:04.697Z,99.99
2019-03-05T01:53:04.687Z,99.99
2019-03-05T01:54:04.681Z,99.99
2019-03-05T01:55:04.671Z,99.99
2019-03-05T01:56:04.662Z,99.99
2019-03-05T01:57:04.653Z,99.99
2019-03-05T01:58:04.643Z,99.99
2019-03-05T01:59:04.639Z,99.99
2019-03-05T02:00:04.627Z,99.99
2019-03-05T02:01:04.617Z,99.99
2019-03-05T02:02:04.609Z,99.99
2019-03-05T02:03:04.599Z,99.99
2019-03-05T02:04:04.591Z,99.99
2019-03-05T02:05:04.582Z,99.99
2019-03-05T02:06:04.573Z,99.99
2019-03-05T02:07:04.567Z,99.99
2019-03-05T02:08:04.554Z,99.99
2019-03-05T02:09:04.547Z,99.99
2019-03-05T02:10:04.586Z,99.99
2019-03-05T02:11:04.527Z,99.99
2019-03-05T02:12:04.526Z,99.99
2019-03-05T02:13:04.513Z,99.99
2019-03-05T02:14:05.013Z,99.99
2019-03-05T02:15:04.492Z,99.99
2019-03-05T02:16:04.492Z,99.99
2019-03-05T02:17:04.475Z,99.99
2019-03-05T02:18:04.476Z,99.99
2019-03-05T02:19:04.450Z,99.99
2019-03-05T02:20:04.444Z,99.99
2019-03-05T02:21:04.439Z,99.99
2019-03-05T02:22:04.429Z,99.99
2019-03-05T02:23:04.420Z,99.99
2019-03-05T02:24:04.411Z,99.99
2019-03-05T02:25:04.417Z,99.99
2019-03-05T02:26:04.393Z,99.99
2019-03-05T02:27:04.388Z,99.99
2019-03-05T02:28:04.375Z,99.99
2019-03-05T02:29:04.369Z,99.99
2019-03-05T02:30:04.358Z,99.99
2019-03-05T02:31:04.356Z,99.99
2019-03-05T02:32:04.373Z,99.99
2019-03-05T02:33:04.335Z,99.99
2019-03-05T02:34:04.321Z,99.99
2019-03-05T02:35:04.313Z,99.99
2019-03-05T02:36:04.304Z,99.99
2019-03-05T02:37:04.321Z,99.99
2019-03-05T02:38:05.645Z,99.99
2019-03-05T02:39:04.270Z,99.99
2019-03-05T02:40:04.267Z,99.99
2019-03-05T02:41:04.261Z,99.99
2019-03-05T02:42:04.252Z,99.99
2019-03-05T02:43:04.261Z,99.99
2019-03-05T02:44:04.240Z,99.99
2019-03-05T02:45:04.232Z,99.99
2019-03-05T02:46:04.219Z,99.99
2019-03-05T02:47:04.205Z,99.99
2019-03-05T02:48:04.200Z,99.99
2019-03-05T02:49:04.188Z,99.99
2019-03-05T02:50:04.181Z,99.99
2019-03-05T02:51:04.174Z,99.99
2019-03-05T02:52:04.161Z,99.93
2019-03-05T02:53:04.151Z,99.07
2019-03-05T02:54:04.141Z,98.03
2019-03-05T02:55:04.131Z,97.55
2019-03-05T02:56:04.123Z,96.31
2019-03-05T02:57:04.118Z,96.41
2019-03-05T02:58:04.111Z,95.17
2019-03-05T02:59:04.097Z,92.80
2019-03-05T03:00:04.089Z,91.18
2019-03-05T03:01:04.080Z,90.04
2019-03-05T03:02:04.070Z,88.80
2019-03-05T03:03:04.066Z,87.85
2019-03-05T03:04:04.064Z,86.99
2019-03-05T03:05:04.043Z,85.38
2019-03-05T03:06:04.036Z,84.62
2019-03-05T03:07:04.023Z,82.24
2019-03-05T03:08:04.017Z,80.91
2019-03-05T03:09:04.011Z,79.77
2019-03-05T03:10:03.997Z,79.86
2019-03-05T03:11:03.986Z,80.05
2019-03-05T03:12:03.987Z,79.39
2019-03-05T03:13:03.970Z,78.91
2019-03-05T03:14:03.964Z,77.30
2019-03-05T03:15:03.944Z,77.30
2019-03-05T03:16:03.949Z,77.68
2019-03-05T03:17:03.939Z,77.68
2019-03-05T03:18:03.913Z,77.01
2019-03-05T03:19:03.922Z,77.01
2019-03-05T03:20:03.897Z,76.92
2019-03-05T03:21:03.890Z,76.16
2019-03-05T03:22:03.885Z,75.68
2019-03-05T03:23:03.880Z,75.87
2019-03-05T03:24:03.877Z,75.68
2019-03-05T03:25:03.857Z,75.87
2019-03-05T03:26:03.842Z,75.68
2019-03-05T03:27:03.832Z,75.87
2019-03-05T03:28:03.824Z,74.92
2019-03-05T03:29:03.829Z,75.96
2019-03-05T03:30:03.806Z,75.87
2019-03-05T03:31:03.809Z,75.68
2019-03-05T03:32:03.790Z,75.68
2019-03-05T03:33:03.795Z,76.25
2019-03-05T03:34:03.771Z,76.16
2019-03-05T03:35:03.764Z,77.20
2019-03-05T03:36:03.760Z,76.92
2019-03-05T03:37:03.748Z,76.54
2019-03-05T03:38:03.747Z,77.39
2019-03-05T03:39:03.726Z,77.77
2019-03-05T03:40:06.195Z,77.68
2019-03-05T03:41:03.708Z,77.97
2019-03-05T03:42:03.709Z,78.34
2019-03-05T03:43:03.693Z,78.06
2019-03-05T03:44:03.684Z,77.39
2019-03-05T03:45:03.674Z,77.68
2019-03-05T03:46:04.177Z,78.63
2019-03-05T03:47:03.655Z,78.72
2019-03-05T03:48:03.643Z,78.72
2019-03-05T03:49:03.639Z,78.63
2019-03-05T03:50:03.629Z,78.63
2019-03-05T03:51:03.623Z,78.91
2019-03-05T03:52:03.632Z,79.01
2019-03-05T03:53:03.606Z,79.20
2019-03-05T03:54:03.590Z,79.01
2019-03-05T03:55:03.592Z,79.30
2019-03-05T03:56:03.582Z,78.91
2019-03-05T03:57:03.577Z,79.01
2019-03-05T03:58:03.555Z,79.58
2019-03-05T03:59:03.550Z,79.68
2019-03-05T04:00:03.538Z,79.77
2019-03-05T04:01:06.809Z,80.34
2019-03-05T04:02:03.518Z,79.01
2019-03-05T04:03:03.512Z,79.01
2019-03-05T04:04:03.506Z,79.58
2019-03-05T04:05:03.506Z,79.86
2019-03-05T04:06:03.483Z,79.58
2019-03-05T04:07:03.472Z,80.63
2019-03-05T04:08:03.472Z,80.24
2019-03-05T04:09:03.455Z,81.10
2019-03-05T04:10:03.446Z,80.91
2019-03-05T04:11:03.441Z,80.91
2019-03-05T04:12:03.427Z,81.01
2019-03-05T04:13:03.420Z,81.77
2019-03-05T04:14:03.414Z,82.34
2019-03-05T04:15:03.410Z,82.62
2019-03-05T04:16:03.391Z,82.24
2019-03-05T04:17:03.402Z,82.15
2019-03-05T04:18:39.332Z,82.05
2019-03-05T04:19:03.380Z,82.05
2019-03-05T04:20:03.360Z,81.96
2019-03-05T04:21:03.351Z,82.34
2019-03-05T04:22:03.343Z,81.86
2019-03-05T04:23:03.331Z,82.24
2019-03-05T04:24:03.328Z,81.96
2019-03-05T04:25:03.313Z,81.48
2019-03-05T04:26:03.302Z,81.10
2019-03-05T04:27:03.305Z,80.91
2019-03-05T04:28:03.292Z,81.01
2019-03-05T04:29:03.273Z,81.10
2019-03-05T04:30:03.271Z,81.10
2019-03-05T04:31:03.256Z,80.91
2019-03-05T04:32:03.251Z,81.10
2019-03-05T04:33:03.246Z,80.53
2019-03-05T04:34:03.232Z,80.63
2019-03-05T04:35:03.223Z,80.53
2019-03-05T04:36:03.211Z,80.53
2019-03-05T04:37:03.218Z,80.53
2019-03-05T04:38:03.190Z,81.20
2019-03-05T04:39:03.183Z,80.53
2019-03-05T04:40:03.563Z,80.53
2019-03-05T04:41:03.170Z,80.44
2019-03-05T04:42:03.162Z,80.53
2019-03-05T04:43:03.144Z,80.44
2019-03-05T04:44:03.144Z,80.53
2019-03-05T04:45:03.130Z,80.34
2019-03-05T04:46:03.125Z,80.91
2019-03-05T04:47:03.110Z,80.91
2019-03-05T04:48:03.103Z,80.15
2019-03-05T04:49:03.095Z,80.53
2019-03-05T04:50:03.095Z,80.34
2019-03-05T04:51:03.080Z,80.44
2019-03-05T04:52:03.066Z,80.53
2019-03-05T04:53:03.056Z,80.53
2019-03-05T04:54:03.058Z,80.24
2019-03-05T04:55:03.039Z,81.20
2019-03-05T04:56:03.037Z,81.20
2019-03-05T04:57:03.020Z,81.20
2019-03-05T04:58:03.011Z,81.77
2019-03-05T04:59:03.005Z,82.53
2019-03-05T05:00:02.994Z,82.34
2019-03-05T05:01:02.988Z,82.71
2019-03-05T05:02:02.975Z,83.95
2019-03-05T05:03:02.969Z,85.19
2019-03-05T05:04:02.955Z,85.57
2019-03-05T05:05:02.952Z,86.99
2019-03-05T05:06:02.946Z,87.57
2019-03-05T05:07:02.930Z,88.33
2019-03-05T05:08:02.922Z,89.28
2019-03-05T05:09:02.912Z,89.75
2019-03-05T05:10:02.898Z,90.80
2019-03-05T05:11:02.893Z,92.03
2019-03-05T05:12:02.885Z,92.51
2019-03-05T05:13:02.881Z,92.70
2019-03-05T05:14:02.863Z,93.75
2019-03-05T05:15:02.857Z,93.75
2019-03-05T05:16:02.850Z,94.03
2019-03-05T05:17:02.841Z,94.22
2019-03-05T05:18:03.337Z,95.08
2019-03-05T05:19:02.824Z,96.22
2019-03-05T05:20:02.819Z,96.12
2019-03-05T05:21:02.802Z,97.27
2019-03-05T05:22:02.790Z,98.12
2019-03-05T05:23:02.782Z,98.79
2019-03-05T05:24:02.772Z,98.50
2019-03-05T05:25:02.767Z,98.88
2019-03-05T05:26:02.759Z,99.99
2019-03-05T05:27:02.744Z,99.99
2019-03-05T05:28:02.734Z,99.99
2019-03-05T05:29:02.730Z,99.99
2019-03-05T05:30:02.721Z,99.99
2019-03-05T05:31:02.706Z,99.99
2019-03-05T05:32:02.699Z,99.99
2019-03-05T05:33:02.694Z,99.99
2019-03-05T05:34:02.681Z,99.99
2019-03-05T05:35:02.671Z,99.99
2019-03-05T05:36:02.675Z,99.99
2019-03-05T05:37:02.654Z,99.99
2019-03-05T05:38:02.654Z,99.99
2019-03-05T05:39:02.634Z,99.99
2019-03-05T05:40:04.739Z,99.99
2019-03-05T05:41:02.618Z,99.99
2019-03-05T05:42:02.608Z,99.99
2019-03-05T05:43:02.601Z,99.99
2019-03-05T05:44:02.588Z,99.99
2019-03-05T05:45:02.581Z,99.99
2019-03-05T05:46:02.573Z,99.99
2019-03-05T05:47:02.560Z,99.99
2019-03-05T05:48:02.557Z,99.99
2019-03-05T05:49:02.545Z,99.99
2019-03-05T05:50:02.533Z,99.99
2019-03-05T05:51:02.523Z,99.99
2019-03-05T05:52:02.552Z,99.99
2019-03-05T05:53:02.508Z,99.99
2019-03-05T05:54:02.494Z,99.99
2019-03-05T05:55:02.486Z,99.99
2019-03-05T05:56:02.475Z,99.99
2019-03-05T05:57:02.467Z,99.99
2019-03-05T05:58:02.456Z,99.99
2019-03-05T05:59:02.448Z,99.99
2019-03-05T06:00:02.436Z,99.99
2019-03-05T06:01:02.505Z,99.99
2019-03-05T06:02:02.423Z,99.99
2019-03-05T06:03:02.417Z,99.99
2019-03-05T06:04:02.400Z,99.99
2019-03-05T06:05:02.392Z,99.99
2019-03-05T06:06:02.378Z,99.99
2019-03-05T06:07:02.369Z,99.99
2019-03-05T06:08:02.362Z,99.99
2019-03-05T06:09:02.356Z,99.99
2019-03-05T06:10:02.345Z,99.99
2019-03-05T06:11:02.340Z,99.99
2019-03-05T06:12:02.323Z,99.99
2019-03-05T06:13:02.330Z,99.99
2019-03-05T06:14:02.305Z,99.99
2019-03-05T06:15:02.299Z,99.99
2019-03-05T06:16:02.298Z,99.99
2019-03-05T06:17:02.279Z,99.99
2019-03-05T06:18:02.277Z,99.99
2019-03-05T06:19:02.260Z,99.99
2019-03-05T06:20:02.246Z,99.99
2019-03-05T06:21:02.242Z,99.99
2019-03-05T06:22:02.241Z,99.99
2019-03-05T06:23:02.253Z,99.99
2019-03-05T06:24:02.213Z,99.99
2019-03-05T06:25:02.205Z,99.99
2019-03-05T06:26:02.189Z,99.99
2019-03-05T06:27:02.194Z,99.99
2019-03-05T06:28:02.173Z,99.99
2019-03-05T06:29:02.162Z,99.99
2019-03-05T06:30:02.152Z,99.99
2019-03-05T06:31:02.144Z,99.99
2019-03-05T06:32:02.133Z,99.99
2019-03-05T06:33:02.126Z,99.99
2019-03-05T06:34:02.112Z,99.99
2019-03-05T06:35:02.107Z,99.99
2019-03-05T06:36:02.094Z,99.99
2019-03-05T06:37:02.170Z,99.99
2019-03-05T06:38:02.082Z,99.99
2019-03-05T06:39:02.067Z,99.99
2019-03-05T06:40:02.058Z,99.99
2019-03-05T06:41:02.050Z,99.99
2019-03-05T06:42:02.042Z,99.99
2019-03-05T06:43:02.030Z,99.99
2019-03-05T06:44:02.027Z,99.99
2019-03-05T06:45:02.015Z,99.99
2019-03-05T06:46:02.001Z,99.99
2019-03-05T06:47:02.008Z,99.99
2019-03-05T06:48:01.986Z,99.99
2019-03-05T06:49:01.976Z,99.99
2019-03-05T06:50:02.500Z,99.99
2019-03-05T06:51:01.955Z,99.99
2019-03-05T06:52:01.947Z,99.74
2019-03-05T06:53:01.937Z,99.64
2019-03-05T06:54:01.930Z,99.64
2019-03-05T06:55:01.933Z,98.60
2019-03-05T06:56:01.909Z,98.41
2019-03-05T06:57:01.905Z,97.93
2019-03-05T06:58:01.893Z,96.98
2019-03-05T06:59:01.895Z,97.45
2019-03-05T07:00:01.873Z,97.45
2019-03-05T07:01:01.863Z,96.31
2019-03-05T07:02:01.857Z,95.17
2019-03-05T07:03:01.849Z,95.56
2019-03-05T07:04:01.850Z,95.56
2019-03-05T07:05:01.828Z,95.17
2019-03-05T07:06:01.819Z,94.51
2019-03-05T07:07:01.808Z,93.37
2019-03-05T07:08:01.798Z,93.46
2019-03-05T07:09:01.792Z,92.80
2019-03-05T07:10:01.825Z,93.18
2019-03-05T07:11:01.771Z,92.41
2019-03-05T07:12:01.763Z,93.18
2019-03-05T07:13:01.757Z,91.85
2019-03-05T07:14:01.746Z,91.18
2019-03-05T07:15:01.736Z,89.94
2019-03-05T07:16:01.726Z,90.04
2019-03-05T07:17:01.720Z,89.66
2019-03-05T07:18:01.710Z,88.80
2019-03-05T07:19:01.701Z,88.61
2019-03-05T07:20:01.690Z,87.90
2019-03-05T07:21:01.688Z,87.28
2019-03-05T07:22:01.672Z,87.19
2019-03-05T07:23:01.670Z,86.43
2019-03-05T07:24:01.657Z,86.57
2019-03-05T07:25:01.650Z,86.66
2019-03-05T07:26:01.637Z,86.47
2019-03-05T07:27:01.629Z,85.52
2019-03-05T07:28:01.621Z,85.80
2019-03-05T07:29:01.618Z,84.66
2019-03-05T07:30:01.610Z,84.76
2019-03-05T07:31:01.600Z,84.28
2019-03-05T07:32:01.584Z,84.66
2019-03-05T07:33:01.578Z,84.47
2019-03-05T07:34:01.578Z,83.14
2019-03-05T07:35:01.561Z,83.42
2019-03-05T07:36:01.551Z,83.42
2019-03-05T07:37:01.540Z,83.33
2019-03-05T07:38:01.544Z,83.71
2019-03-05T07:39:01.527Z,83.52
2019-03-05T07:40:01.513Z,83.62
2019-03-05T07:41:01.509Z,82.95
2019-03-05T07:42:01.499Z,82.67
2019-03-05T07:43:01.490Z,82.28
2019-03-05T07:44:01.480Z,81.52
2019-03-05T07:45:01.474Z,82.38
2019-03-05T07:46:01.461Z,81.33
2019-03-05T07:47:01.459Z,80.38
2019-03-05T07:48:01.450Z,80.00
2019-03-05T07:49:01.443Z,80.38
2019-03-05T07:50:01.432Z,79.81
2019-03-05T07:51:01.418Z,79.33
2019-03-05T07:52:01.408Z,79.24
2019-03-05T07:53:01.402Z,78.67
2019-03-05T07:54:01.390Z,78.38
2019-03-05T07:55:12.912Z,77.91
2019-03-05T07:56:01.383Z,77.72
2019-03-05T07:57:01.366Z,77.24
2019-03-05T07:58:01.359Z,76.86
2019-03-05T07:59:01.347Z,77.24
2019-03-05T08:00:01.373Z,76.71
2019-03-05T08:01:01.332Z,75.95
2019-03-05T08:02:01.324Z,75.57
2019-03-05T08:03:01.317Z,74.90
2019-03-05T08:04:01.308Z,74.90
2019-03-05T08:05:01.299Z,74.24
2019-03-05T08:06:01.292Z,73.76
2019-03-05T08:07:01.286Z,74.33
2019-03-05T08:08:01.274Z,74.43
2019-03-05T08:09:01.265Z,74.04
2019-03-05T08:10:01.257Z,73.57
2019-03-05T08:11:01.250Z,72.52
2019-03-05T08:12:01.253Z,71.47
2019-03-05T08:13:01.231Z,71.86
2019-03-05T08:14:01.224Z,72.42
2019-03-05T08:15:01.215Z,71.86
2019-03-05T08:16:02.782Z,71.95
2019-03-05T08:17:01.198Z,71.19
2019-03-05T08:18:01.194Z,71.38
2019-03-05T08:19:01.192Z,71.00
2019-03-05T08:20:01.173Z,71.47
2019-03-05T08:21:01.165Z,70.75
2019-03-05T08:22:01.668Z,68.81
2019-03-05T08:23:01.147Z,68.62
2019-03-05T08:24:01.143Z,68.27
2019-03-05T08:25:01.134Z,68.15
2019-03-05T08:26:01.187Z,68.18
2019-03-05T08:27:01.118Z,68.08
2019-03-05T08:28:01.110Z,68.27
2019-03-05T08:29:02.962Z,67.41
2019-03-05T08:30:01.092Z,67.61
2019-03-05T08:31:01.088Z,67.51
2019-03-05T08:32:01.076Z,67.22
2019-03-05T08:33:01.076Z,66.94
2019-03-05T08:34:01.062Z,66.56
2019-03-05T08:35:01.054Z,66.08
2019-03-05T08:36:01.046Z,65.92
2019-03-05T08:37:01.047Z,65.64
2019-03-05T08:38:01.046Z,65.83
2019-03-05T08:39:01.026Z,65.26
2019-03-05T08:40:01.014Z,65.36
2019-03-05T08:41:01.007Z,64.97
2019-03-05T08:42:01.007Z,64.40
2019-03-05T08:43:00.995Z,64.40
2019-03-05T08:44:00.985Z,63.83
2019-03-05T08:45:00.982Z,63.17
2019-03-05T08:46:00.971Z,62.97
2019-03-05T08:47:00.960Z,63.45
2019-03-05T08:48:00.957Z,62.97
2019-03-05T08:49:00.950Z,63.64
2019-03-05T08:50:00.942Z,64.02
2019-03-05T08:51:00.931Z,62.97
2019-03-05T08:52:00.925Z,63.35
2019-03-05T08:53:00.918Z,63.07
2019-03-05T08:54:00.910Z,63.07
2019-03-05T08:55:00.915Z,62.97
2019-03-05T08:56:00.896Z,62.78
2019-03-05T08:57:00.890Z,62.97
2019-03-05T08:58:00.885Z,62.97
2019-03-05T08:59:00.880Z,63.35
2019-03-05T09:00:00.868Z,63.35
2019-03-05T09:01:00.866Z,62.49
2019-03-05T09:02:00.855Z,61.73
2019-03-05T09:03:00.855Z,61.07
2019-03-05T09:04:00.837Z,61.64
2019-03-05T09:05:00.832Z,61.54
2019-03-05T09:06:00.824Z,61.83
2019-03-05T09:07:00.817Z,62.21
2019-03-05T09:08:00.811Z,62.49
2019-03-05T09:09:00.814Z,62.21
2019-03-05T09:10:00.795Z,62.12
2019-03-05T09:11:00.791Z,62.21
2019-03-05T09:12:00.787Z,62.34
2019-03-05T09:13:00.772Z,61.67
2019-03-05T09:14:00.781Z,61.76
2019-03-05T09:15:00.759Z,61.45
2019-03-05T09:16:00.784Z,61.57
2019-03-05T09:17:00.779Z,60.88
2019-03-05T09:18:00.755Z,60.81
2019-03-05T09:19:00.990Z,60.72
2019-03-05T09:20:00.730Z,61.00
2019-03-05T09:21:00.716Z,60.91
2019-03-05T09:22:00.710Z,60.33
2019-03-05T09:23:00.702Z,60.33
2019-03-05T09:24:00.819Z,60.14
2019-03-05T09:25:00.705Z,59.86
2019-03-05T09:26:00.697Z,59.86
2019-03-05T09:27:00.677Z,59.67
2019-03-05T09:28:00.668Z,59.99
2019-03-05T09:29:00.663Z,58.94
2019-03-05T09:30:00.660Z,58.84
2019-03-05T09:31:00.649Z,58.55
2019-03-05T09:32:00.643Z,58.84
2019-03-05T09:33:00.647Z,58.36
2019-03-05T09:34:00.629Z,57.98
2019-03-05T09:35:00.622Z,57.22
2019-03-05T09:36:00.665Z,57.22
2019-03-05T09:37:00.608Z,56.07
2019-03-05T09:38:00.604Z,56.46
2019-03-05T09:39:03.087Z,56.26
2019-03-05T09:40:00.607Z,56.43
2019-03-05T09:41:00.614Z,56.62
2019-03-05T09:42:00.576Z,56.33
2019-03-05T09:43:00.628Z,56.46
2019-03-05T09:44:00.561Z,56.93
2019-03-05T09:45:00.578Z,56.07
2019-03-05T09:46:00.547Z,56.07
2019-03-05T09:47:00.618Z,56.26
2019-03-05T09:48:00.538Z,55.79
2019-03-05T09:49:00.566Z,56.17
2019-03-05T09:50:00.522Z,56.36
2019-03-05T09:51:00.520Z,56.46
2019-03-05T09:52:00.539Z,56.17
2019-03-05T09:53:00.504Z,56.33
2019-03-05T09:54:00.830Z,56.52
2019-03-05T09:55:00.491Z,56.74
2019-03-05T09:56:02.382Z,56.62
2019-03-05T09:57:00.480Z,56.84
2019-03-05T09:58:08.045Z,57.19
2019-03-05T09:59:00.463Z,58.07
2019-03-05T10:00:00.464Z,58.43
2019-03-05T10:01:00.456Z,58.84
2019-03-05T10:02:00.453Z,58.36
2019-03-05T10:03:00.445Z,59.51
2019-03-05T10:04:00.433Z,59.22
2019-03-05T10:05:00.429Z,58.84
2019-03-05T10:06:00.418Z,59.12
2019-03-05T10:07:00.414Z,59.22
2019-03-05T10:08:00.411Z,59.31
2019-03-05T10:09:00.422Z,60.08
2019-03-05T10:10:00.395Z,60.46
2019-03-05T10:11:00.386Z,61.29
2019-03-05T10:12:02.362Z,61.96
2019-03-05T10:13:04.358Z,61.89
2019-03-05T10:14:01.447Z,62.56
2019-03-05T10:15:00.602Z,62.52
2019-03-05T10:16:00.387Z,61.19
2019-03-05T10:17:00.350Z,60.81
2019-03-05T10:18:11.770Z,60.43
2019-03-05T10:19:00.339Z,60.43
2019-03-05T10:20:00.332Z,60.33
2019-03-05T10:21:00.326Z,60.62
2019-03-05T10:22:00.318Z,61.00
2019-03-05T10:23:00.315Z,60.52
2019-03-05T10:24:10.159Z,59.95
2019-03-05T10:25:05.967Z,60.14
2019-03-05T10:26:00.297Z,60.14
2019-03-05T10:27:00.285Z,60.52
2019-03-05T10:28:01.871Z,61.38
2019-03-05T10:29:00.277Z,60.91
2019-03-05T10:30:00.303Z,61.48
2019-03-05T10:31:00.329Z,61.38
2019-03-05T10:32:00.264Z,61.19
2019-03-05T10:33:00.247Z,61.38
2019-03-05T10:34:00.238Z,61.96
2019-03-05T10:35:00.347Z,62.15
2019-03-05T10:36:00.227Z,62.62
2019-03-05T10:37:00.219Z,62.81
2019-03-05T10:38:00.220Z,63.67
2019-03-05T10:39:00.206Z,65.26
2019-03-05T10:40:00.211Z,67.07
2019-03-05T10:41:00.197Z,69.45
2019-03-05T10:42:00.187Z,70.97
2019-03-05T10:43:08.090Z,71.36
2019-03-05T10:44:00.188Z,71.36
2019-03-05T10:45:00.356Z,70.59
2019-03-05T10:46:00.161Z,70.69
2019-03-05T10:47:00.156Z,70.12
2019-03-05T10:48:00.145Z,71.64
2019-03-05T10:49:00.139Z,71.07
2019-03-05T10:50:00.338Z,72.50
2019-03-05T10:51:00.134Z,74.69
2019-03-05T10:52:00.116Z,78.27
2019-03-05T10:53:00.113Z,94.65
2019-03-05T10:54:02.125Z,99.98
2019-03-05T10:55:00.126Z,99.99
2019-03-05T10:56:00.089Z,99.99
2019-03-05T10:57:00.086Z,99.99
2019-03-05T10:58:00.088Z,99.99
2019-03-05T10:59:00.075Z,99.99
2019-03-05T11:00:00.063Z,99.99
2019-03-05T11:01:00.048Z,99.99
2019-03-05T11:02:00.050Z,99.99
2019-03-05T11:03:00.036Z,99.99
2019-03-05T11:04:00.027Z,99.99
2019-03-05T11:05:00.018Z,99.99
2019-03-05T11:06:00.024Z,99.99
2019-03-05T11:07:00.027Z,99.99
2019-03-05T11:07:59.995Z,99.99
2019-03-05T11:09:00.003Z,99.99
2019-03-05T11:09:59.980Z,99.99
2019-03-05T11:10:59.981Z,99.99
2019-03-05T11:12:01.218Z,99.99
2019-03-05T11:12:59.952Z,99.99
2019-03-05T11:13:59.955Z,99.99
2019-03-05T11:15:00.022Z,99.99
2019-03-05T11:15:59.931Z,99.99
2019-03-05T11:16:59.925Z,99.99
2019-03-05T11:18:00.185Z,99.99
2019-03-05T11:18:59.918Z,99.99
2019-03-05T11:19:59.898Z,99.99
2019-03-05T11:20:59.922Z,99.99
2019-03-05T11:22:00.106Z,99.99
2019-03-05T11:23:00.026Z,99.99
2019-03-05T11:24:00.036Z,99.99
2019-03-05T11:25:00.056Z,99.99
2019-03-05T11:26:00.664Z,99.99
2019-03-05T11:26:59.938Z,99.99
2019-03-05T11:28:00.588Z,99.99
2019-03-05T11:28:59.916Z,99.84
2019-03-05T11:30:00.173Z,99.84
2019-03-05T11:30:59.859Z,99.99
2019-03-05T11:31:59.871Z,99.17
2019-03-05T11:33:00.803Z,99.99
2019-03-05T11:34:00.258Z,99.99
2019-03-05T11:35:00.107Z,99.99
2019-03-05T11:35:59.770Z,99.99
2019-03-05T11:37:00.121Z,99.99
2019-03-05T11:38:00.054Z,99.99
2019-03-05T11:39:00.026Z,99.99
2019-03-05T11:39:59.943Z,99.99
2019-03-05T11:40:59.767Z,99.99
2019-03-05T11:41:59.975Z,99.99
2019-03-05T11:43:00.944Z,99.99
2019-03-05T11:43:59.753Z,99.99
2019-03-05T11:45:07.578Z,99.99
2019-03-05T11:46:00.149Z,99.99
2019-03-05T11:47:00.079Z,99.99
2019-03-05T11:47:59.674Z,99.99
2019-03-05T11:48:59.669Z,99.99
2019-03-05T11:49:59.701Z,99.99
2019-03-05T11:50:59.931Z,99.99
2019-03-05T11:51:59.780Z,99.99
2019-03-05T11:52:59.649Z,99.99
2019-03-05T11:53:59.998Z,99.99
2019-03-05T11:54:59.618Z,99.99
2019-03-05T11:55:59.613Z,99.99
2019-03-05T11:57:01.634Z,99.99
2019-03-05T11:57:59.602Z,99.99
2019-03-05T11:58:59.749Z,99.99
2019-03-05T11:59:59.625Z,99.99
2019-03-05T12:00:59.757Z,99.99
2019-03-05T12:01:59.563Z,99.99
2019-03-05T12:02:59.562Z,99.99
2019-03-05T12:03:59.553Z,99.99
2019-03-05T12:04:59.542Z,99.99
2019-03-05T12:05:59.536Z,99.99
2019-03-05T12:06:59.526Z,99.99
2019-03-05T12:07:59.520Z,99.99
2019-03-05T12:08:59.512Z,99.99
2019-03-05T12:09:59.503Z,99.99
2019-03-05T12:10:59.499Z,99.99
2019-03-05T12:11:59.490Z,99.99
2019-03-05T12:12:59.482Z,99.99
2019-03-05T12:13:59.475Z,99.99
2019-03-05T12:14:59.468Z,99.99
2019-03-05T12:15:59.463Z,99.99
2019-03-05T12:16:59.476Z,99.99
2019-03-05T12:17:59.450Z,99.99
2019-03-05T12:18:59.446Z,99.99
2019-03-05T12:19:59.435Z,99.99
2019-03-05T12:20:59.439Z,99.99
2019-03-05T12:21:59.423Z,99.99
2019-03-05T12:22:59.415Z,99.99
2019-03-05T12:23:59.423Z,99.99
2019-03-05T12:25:01.781Z,98.03
2019-03-05T12:25:59.391Z,97.56
2019-03-05T12:26:59.397Z,99.27
2019-03-05T12:28:09.416Z,99.08
2019-03-05T12:28:59.370Z,98.99
2019-03-05T12:29:59.359Z,99.99
2019-03-05T12:30:59.407Z,99.46
2019-03-05T12:31:59.399Z,99.18
2019-03-05T12:32:59.479Z,98.22
2019-03-05T12:33:59.337Z,97.46
2019-03-05T12:34:59.351Z,97.65
2019-03-05T12:36:00.498Z,94.51
2019-03-05T12:37:00.568Z,91.27
2019-03-05T12:37:59.337Z,92.50
2019-03-05T12:38:59.388Z,92.98
2019-03-05T12:39:59.352Z,92.03
2019-03-05T12:40:59.346Z,92.69
2019-03-05T12:41:59.338Z,93.93
2019-03-05T12:42:59.277Z,93.74
2019-03-05T12:43:59.266Z,95.84
2019-03-05T12:44:59.259Z,93.74
2019-03-05T12:45:59.250Z,93.55
2019-03-05T12:46:59.365Z,93.12
2019-03-05T12:47:59.239Z,93.88
2019-03-05T12:48:59.233Z,91.88
2019-03-05T12:49:59.230Z,90.17
2019-03-05T12:50:59.235Z,90.17
2019-03-05T12:51:59.651Z,94.70